Santiago, Dominican Republic

12:12 PM AST on February 09, 2016 (GMT -0400)
PUCMM Santiago | | Change Station
CLOSE
Current Station
Personal Weather Station
Location: Santiago De Los Caballeros, SANTIAGO
Elevation: 653 ft
Nearby Weather Stations

Elev 653 ft 19.44 °N, 70.68 °W | Updated 1 minute ago

Mostly Cloudy
Mostly Cloudy
84.2 °F
Feels Like 83 °F
N
0.0
Wind Variable Wind from SE
Gusts 2.5 mph

Today
High -- | Low -- °F
--% Chance of Precip.
Yesterday
High -- | Low -- °F
Precip. -- in
Pressure 30.09 in
Visibility 6.2 miles
Clouds Mostly Cloudy 2000 ft
Heat Index 83 °F
Dew Point 56 °F
Humidity 38%
Rainfall 0.00 in
Snow Depth Not available.
7:14 AM 6:39 PM
New Moon, 2% visible
METAR MDST 091600Z 11006KT 9999 BKN020 27/21 Q1019
Pressure 30.09 in
Visibility 6.2 miles
Clouds Mostly Cloudy 2000 ft
Heat Index 83 °F
Dew Point 56 °F
Humidity 38%
Rainfall 0.00 in
Snow Depth Not available.
7:14 AM 6:39 PM
New Moon, 2% visible
METAR MDST 091600Z 11006KT 9999 BKN020 27/21 Q1019

10-Day Weather Forecast

No radar image for this location.
×

Almanac

Astronomy

Feb. 09, 2016 Rise Set
Actual Time
Civil Twilight
Nautical Twilight
Astronomical Twilight
Moon
Length of Visible Light
Length of Day
Tomorrow will be .
, % of the Moon is Illuminated

Today's Extremes

Country Highs Country Lows

Community

WunderPhotos

Upload Photos

1,891,629 photos uploaded!

WunderBlog® & News

Nearby

Air Quality

  Air Quality AQ Index Pollutant
Not available.

Snow Depth

Station Depth Elevation

Earthquake Activity

City Distance Mag. Time & Date
Minimum magnitude displayed is 2.5.

Coastal Water Temperatures

Place Temperature

Stations

Nearby Weather Stations

Station Location Temp. Windchill Dew Point Humidity Wind Precip. Elev Updated Type